This is the latest recevied weather packets stored in our database for station/object KD8FRE. If no packets are shown the sender has not sent any weather packets the latest 10 day(s).
| Time | Temp. | Humidity | Pressure | Rain* | Wind** | Luminosity | Snow |
|---|---|---|---|---|---|---|---|
| 1777960486 | 15° C | 81% | 1001.5 hPa | 0 mm | - | 0 W/m² | - |
| 1777960183 | 15° C | 80% | 1001.4 hPa | 0 mm | - | 0 W/m² | - |
| 1777959881 | 15° C | 80% | 1001.4 hPa | 0 mm | - | 0 W/m² | - |
| 1777959579 | 15° C | 79% | 1000.9 hPa | 0 mm | - | 0 W/m² | - |
| 1777959276 | 15° C | 79% | 1000.7 hPa | 0 mm | - | 0 W/m² | - |
| 1777958972 | 15° C | 80% | 1000.8 hPa | 0 mm | - | 0 W/m² | - |
| 1777958669 | 15° C | 80% | 1000.6 hPa | 0 mm | - | 0 W/m² | - |
| 1777958366 | 15° C | 80% | 1000.8 hPa | 0 mm | - | 0 W/m² | - |
| 1777958063 | 15° C | 81% | 1000.8 hPa | 0 mm | - | 0 W/m² | - |
| 1777957762 | 15° C | 81% | 1000.7 hPa | 0 mm | - | 0 W/m² | - |
| 1777957460 | 15° C | 82% | 1000.7 hPa | 0 mm | - | 0 W/m² | - |
| 1777957156 | 15° C | 81% | 1000.6 hPa | 0 mm | - | 0 W/m² | - |
| 1777956853 | 15° C | 81% | 1000.4 hPa | 0 mm | - | 0 W/m² | - |
| 1777956550 | 15° C | 81% | 1000.6 hPa | 0 mm | - | 0 W/m² | - |
| 1777956247 | 15.56° C | 80% | 1000.7 hPa | 0 mm | - | 0 W/m² | - |
| 1777955943 | 15.56° C | 80% | 1000.8 hPa | 1.27 mm | - | 0 W/m² | - |
| 1777955640 | 16.11° C | 76% | 1000.2 hPa | 1.27 mm | - | 0 W/m² | - |
| 1777955336 | 16.67° C | 73% | 1000.2 hPa | 0 mm | - | 0 W/m² | - |
| 1777955033 | 17.78° C | 66% | 1001 hPa | 0 mm | - | 0 W/m² | - |
| 1777954730 | 18.89° C | 66% | 1000.9 hPa | 0 mm | - | 0 W/m² | - |
| 1777954427 | 19.44° C | 64% | 1000.9 hPa | 0 mm | - | 0 W/m² | - |
| 1777954124 | 19.44° C | 62% | 1000.7 hPa | 0 mm | - | 0 W/m² | - |
| 1777953822 | 19.44° C | 62% | 1000.8 hPa | 0 mm | - | 0 W/m² | - |
| 1777941090 | 18.89° C | 64% | 999.8 hPa | 0 mm | - | 6 W/m² | - |
| 1777940484 | 18.33° C | 67% | 999.7 hPa | 0 mm | - | 14 W/m² | - |
* Rain latest hour (hover to see other rain measurements)
** Current wind speed in m/s (hover to see current wind gust speed)